Time;durP1;ratioP1;P1;durP2;ratioP2;P2;SDS_P1;SDS_P2;PMS_P1;PMS_P2;Temp;Humidity;BMP_temperature;BMP_pressure;BME280_temperature;BME280_humidity;BME280_pressure;Samples;Min_cycle;Max_cycle;Signal;HPM_P1;HPM_P2
2021/05/03 00:01:04;;;;;;;;;;;;;;;4.20;82.15;98546.78;2176125;81;20233;-74
2021/05/03 00:04:06;;;;;;;;;;;;;;;4.20;82.33;98522.12;2163482;82;20233;-74
2021/05/03 00:07:07;;;;;;;;;;;;;;;4.21;82.37;98535.47;2163482;82;20160;-74
2021/05/03 00:10:09;;;;;;;;;;;;;;;4.21;82.32;98534.17;2163551;82;20138;-74
2021/05/03 00:13:11;;;;;;;;;;;;;;;4.20;82.33;98535.93;2163516;82;20147;-73
2021/05/03 00:16:14;;;;;;;;;;;;;;;4.22;82.42;98543.19;2142528;82;20516;-73
2021/05/03 00:19:16;;;;;;;;;;;;;;;4.23;82.40;98541.46;2163485;82;20138;-73
2021/05/03 00:22:18;;;;;;;;;;;;;;;4.23;82.69;98546.19;2163517;82;20158;-74
2021/05/03 00:25:20;;;;;;;;;;;;;;;4.23;82.72;98551.38;2142550;82;20143;-73
2021/05/03 00:28:22;;;;;;;;;;;;;;;4.25;82.98;98551.31;2142586;82;20139;-74
2021/05/03 00:31:25;;;;;;;;;;;;;;;4.24;82.80;98553.52;2142551;82;20535;-73
2021/05/03 00:34:27;;;;;;;;;;;;;;;4.23;82.16;98564.83;2163602;82;20416;-73
2021/05/03 00:37:29;;;;;;;;;;;;;;;4.25;82.42;98569.49;2163451;82;20159;-76
2021/05/03 00:40:31;;;;;;;;;;;;;;;4.24;82.78;98572.98;2163802;82;20261;-74
2021/05/03 00:43:34;;;;;;;;;;;;;;;4.22;82.36;98579.54;2163496;82;20519;-73
2021/05/03 00:46:38;;;;;;;;;;;;;;;4.23;82.17;98570.86;2142538;82;20226;-73
2021/05/03 00:49:41;;;;;;;;;;;;;;;4.24;81.74;98566.50;2163456;82;20150;-73
2021/05/03 00:52:43;;;;;;;;;;;;;;;4.23;81.36;98576.05;2163507;82;20123;-73
2021/05/03 00:55:45;;;;;;;;;;;;;;;4.23;81.79;98578.64;2163569;82;20174;-73
2021/05/03 00:58:47;;;;;;;;;;;;;;;4.24;81.76;98589.43;2163407;82;20158;-73
2021/05/03 01:01:48;;;;;;;;;;;;;;;4.24;81.94;98585.97;2171001;82;20228;-73
2021/05/03 01:04:51;;;;;;;;;;;;;;;4.24;82.03;98576.88;2181600;82;20233;-74
2021/05/03 01:07:53;;;;;;;;;;;;;;;4.25;82.24;98576.84;2181089;82;20233;-73
2021/05/03 01:10:54;;;;;;;;;;;;;;;4.26;82.49;98575.92;2181101;82;20276;-73
2021/05/03 01:13:56;;;;;;;;;;;;;;;4.28;82.11;98571.96;2181453;82;20146;-73
2021/05/03 01:16:58;;;;;;;;;;;;;;;4.31;81.94;98581.80;2181067;82;20264;-76
2021/05/03 01:20:00;;;;;;;;;;;;;;;4.33;82.02;98580.43;2181157;82;20249;-73
2021/05/03 01:23:02;;;;;;;;;;;;;;;4.32;81.96;98587.82;2181141;82;20563;-74
2021/05/03 01:26:04;;;;;;;;;;;;;;;4.33;82.00;98592.95;2181165;82;20548;-74
2021/05/03 01:29:06;;;;;;;;;;;;;;;4.34;82.12;98590.75;2181084;82;20126;-73
2021/05/03 01:32:08;;;;;;;;;;;;;;;4.37;82.27;98592.39;2181062;82;20185;-77
2021/05/03 01:35:10;;;;;;;;;;;;;;;4.41;82.26;98591.37;2181054;82;20271;-73
2021/05/03 01:38:12;;;;;;;;;;;;;;;4.44;81.91;98591.67;2181080;82;20225;-74
2021/05/03 01:41:14;;;;;;;;;;;;;;;4.45;82.17;98600.73;2181060;82;20276;-74
2021/05/03 01:44:16;;;;;;;;;;;;;;;4.44;82.18;98585.19;2181080;82;20281;-74
2021/05/03 01:47:18;;;;;;;;;;;;;;;4.45;82.34;98597.27;2181042;82;20544;-76
2021/05/03 01:50:20;;;;;;;;;;;;;;;4.44;82.17;98586.05;2181036;82;20149;-74
2021/05/03 01:53:22;;;;;;;;;;;;;;;4.42;82.52;98596.94;2181120;82;20444;-73
2021/05/03 01:56:24;;;;;;;;;;;;;;;4.38;82.59;98594.06;2181545;82;20252;-73
2021/05/03 01:59:32;;;;;;;;;;;;;;;4.36;82.58;98602.38;2181180;82;20527;-74
2021/05/03 02:02:31;;;;;;;;;;;;;;;4.36;82.43;98601.08;2180510;81;20432;-73
2021/05/03 02:05:33;;;;;;;;;;;;;;;4.34;82.48;98610.23;2181268;82;20149;-73
2021/05/03 02:08:35;;;;;;;;;;;;;;;4.32;82.72;98608.16;2181036;82;20452;-73
2021/05/03 02:11:39;;;;;;;;;;;;;;;4.30;82.90;98611.25;2181050;82;20249;-73
2021/05/03 02:14:41;;;;;;;;;;;;;;;4.31;83.09;98597.38;2181011;82;20142;-73
2021/05/03 02:17:43;;;;;;;;;;;;;;;4.28;83.02;98606.59;2181384;82;20162;-74
2021/05/03 02:20:45;;;;;;;;;;;;;;;4.27;82.99;98611.84;2153340;82;20273;-74
2021/05/03 02:23:47;;;;;;;;;;;;;;;4.24;82.78;98632.70;2181315;82;20250;-75
2021/05/03 02:26:50;;;;;;;;;;;;;;;4.22;82.15;98628.03;2181279;82;20129;-74
2021/05/03 02:29:51;;;;;;;;;;;;;;;4.21;82.39;98622.44;2181053;82;20244;-74
2021/05/03 02:32:54;;;;;;;;;;;;;;;4.19;82.35;98632.88;2181542;82;20134;-74
2021/05/03 02:35:55;;;;;;;;;;;;;;;4.15;81.92;98621.78;2181006;82;20241;-74
2021/05/03 02:38:57;;;;;;;;;;;;;;;4.16;81.66;98624.75;2181006;82;20228;-74
2021/05/03 02:42:00;;;;;;;;;;;;;;;4.15;81.36;98644.28;2181154;82;20122;-74
2021/05/03 02:45:02;;;;;;;;;;;;;;;4.13;81.15;98640.91;2181136;82;20517;-73
2021/05/03 02:48:04;;;;;;;;;;;;;;;4.11;81.07;98640.97;2180985;82;20609;-73
2021/05/03 02:51:06;;;;;;;;;;;;;;;4.09;80.87;98654.91;2181163;82;20524;-73
2021/05/03 02:54:08;;;;;;;;;;;;;;;4.08;80.83;98650.61;2181009;82;20276;-73
2021/05/03 02:57:10;;;;;;;;;;;;;;;4.06;81.13;98649.83;2180990;82;20236;-73
2021/05/03 03:00:13;;;;;;;;;;;;;;;4.06;81.11;98649.38;2181117;82;20509;-73
2021/05/03 03:03:15;;;;;;;;;;;;;;;4.07;81.41;98674.44;2168109;81;20600;-73
2021/05/03 03:06:18;;;;;;;;;;;;;;;4.08;81.66;98653.20;2163313;82;21359;-74
2021/05/03 03:09:20;;;;;;;;;;;;;;;4.08;81.81;98650.18;2163564;82;20146;-74
2021/05/03 03:12:23;;;;;;;;;;;;;;;4.08;82.21;98656.67;2163592;82;20150;-77
2021/05/03 03:15:29;;;;;;;;;;;;;;;4.07;82.59;98649.77;2163734;82;20261;-74
2021/05/03 03:18:29;;;;;;;;;;;;;;;4.08;82.62;98648.88;2163647;82;20526;-73
2021/05/03 03:21:31;;;;;;;;;;;;;;;4.08;82.75;98651.48;2163541;82;20134;-74
2021/05/03 03:24:33;;;;;;;;;;;;;;;4.12;82.98;98654.79;2163548;82;20154;-74
2021/05/03 03:27:36;;;;;;;;;;;;;;;4.13;82.95;98666.41;2163466;82;20182;-74
2021/05/03 03:30:38;;;;;;;;;;;;;;;4.15;83.17;98658.56;2163629;82;20242;-74
2021/05/03 03:33:40;;;;;;;;;;;;;;;4.16;83.17;98664.99;2164029;82;20234;-74
2021/05/03 03:36:42;;;;;;;;;;;;;;;4.18;83.50;98679.24;2163551;82;20139;-74
2021/05/03 03:39:44;;;;;;;;;;;;;;;4.20;83.44;98681.31;2163851;82;20244;-73
2021/05/03 03:42:46;;;;;;;;;;;;;;;4.23;83.33;98674.70;2163505;82;20229;-74
2021/05/03 03:45:48;;;;;;;;;;;;;;;4.27;83.21;98672.39;2163609;82;20182;-75
2021/05/03 03:48:50;;;;;;;;;;;;;;;4.27;83.01;98681.95;2163614;82;20501;-74
2021/05/03 03:51:52;;;;;;;;;;;;;;;4.29;82.84;98686.15;2164016;82;20230;-74
2021/05/03 03:54:54;;;;;;;;;;;;;;;4.31;82.84;98683.49;2163987;82;20257;-74
2021/05/03 03:57:56;;;;;;;;;;;;;;;4.31;82.42;98689.55;2163545;82;20452;-73
2021/05/03 04:00:58;;;;;;;;;;;;;;;4.31;82.30;98689.55;2163496;82;20151;-74
2021/05/03 04:04:02;;;;;;;;;;;;;;;4.32;82.25;98686.06;2179050;81;20141;-74
2021/05/03 04:07:09;;;;;;;;;;;;;;;4.32;82.40;98700.78;2180951;82;20280;-74
2021/05/03 04:10:20;;;;;;;;;;;;;;;4.31;82.18;98695.18;2180678;82;20279;-77
2021/05/03 04:13:35;;;;;;;;;;;;;;;4.30;82.22;98699.54;2180031;82;20277;-74
2021/05/03 04:23:34;;;;;;;;;;;;;;;4.33;81.98;98708.50;2181058;82;20413;-74
2021/05/03 04:26:26;;;;;;;;;;;;;;;4.33;81.85;98708.50;2178742;82;20224;-74
2021/05/03 04:29:28;;;;;;;;;;;;;;;4.33;82.20;98717.59;2180939;82;20233;-74
2021/05/03 04:32:30;;;;;;;;;;;;;;;4.34;82.31;98721.06;2180937;82;20236;-74
2021/05/03 04:35:32;;;;;;;;;;;;;;;4.27;81.89;98728.22;2180925;82;20217;-76
2021/05/03 04:38:34;;;;;;;;;;;;;;;4.20;82.36;98735.00;2181095;82;20269;-74
2021/05/03 04:41:36;;;;;;;;;;;;;;;4.13;82.46;98741.69;2181000;82;20586;-74
2021/05/03 04:44:38;;;;;;;;;;;;;;;4.07;82.92;98736.73;2180894;82;20240;-74
2021/05/03 04:47:40;;;;;;;;;;;;;;;4.04;83.01;98742.03;2180898;82;20252;-74
2021/05/03 04:50:42;;;;;;;;;;;;;;;4.00;83.73;98746.94;2180930;82;20233;-74
2021/05/03 04:53:44;;;;;;;;;;;;;;;3.98;83.84;98752.65;2181008;82;20616;-74
2021/05/03 04:56:46;;;;;;;;;;;;;;;3.97;84.39;98753.54;2180869;82;20150;-74
2021/05/03 04:59:48;;;;;;;;;;;;;;;3.98;84.22;98753.48;2180895;82;20138;-73
2021/05/03 05:02:50;;;;;;;;;;;;;;;3.97;82.77;98760.86;2173488;81;20226;-77
2021/05/03 05:05:53;;;;;;;;;;;;;;;3.93;83.05;98769.66;2163532;82;20123;-74
2021/05/03 05:08:55;;;;;;;;;;;;;;;3.84;82.02;98769.15;2163489;82;20151;-74
2021/05/03 05:11:56;;;;;;;;;;;;;;;3.78;81.98;98780.58;2163597;82;20158;-74
2021/05/03 05:14:58;;;;;;;;;;;;;;;3.75;82.09;98765.09;2163657;82;20250;-74
2021/05/03 05:18:00;;;;;;;;;;;;;;;3.72;82.56;98775.15;2163473;82;20233;-74
2021/05/03 05:21:02;;;;;;;;;;;;;;;3.73;82.82;98775.98;2163460;82;20138;-74
2021/05/03 05:24:04;;;;;;;;;;;;;;;3.72;82.37;98775.15;2163821;82;20250;-74
2021/05/03 05:27:06;;;;;;;;;;;;;;;3.77;82.00;98768.04;2163447;82;20139;-77
2021/05/03 05:30:09;;;;;;;;;;;;;;;3.82;82.58;98773.06;2163465;82;20194;-74
2021/05/03 05:33:11;;;;;;;;;;;;;;;3.86;82.31;98777.71;2163658;82;20226;-74
2021/05/03 05:36:13;;;;;;;;;;;;;;;3.88;82.28;98780.66;2163458;82;20150;-78
2021/05/03 05:39:15;;;;;;;;;;;;;;;3.91;82.72;98787.50;2163485;82;20285;-76
2021/05/03 05:42:17;;;;;;;;;;;;;;;3.93;82.90;98784.39;2163457;82;20141;-74
2021/05/03 05:45:18;;;;;;;;;;;;;;;3.93;82.77;98783.09;2163444;82;20146;-78
2021/05/03 05:48:20;;;;;;;;;;;;;;;3.88;82.56;98792.77;2163552;82;20233;-75
2021/05/03 05:51:23;;;;;;;;;;;;;;;3.89;83.22;98791.41;2163802;82;20237;-77
2021/05/03 05:54:25;;;;;;;;;;;;;;;3.96;82.53;98792.90;2163767;82;20556;-75
2021/05/03 05:57:27;;;;;;;;;;;;;;;4.03;82.93;98789.65;2163837;82;20229;-77
2021/05/03 06:00:32;;;;;;;;;;;;;;;4.15;83.08;98789.66;2163685;82;20408;-78
2021/05/03 06:03:34;;;;;;;;;;;;;;;4.21;83.18;98794.66;2169303;81;20229;-74
2021/05/03 06:06:36;;;;;;;;;;;;;;;4.18;82.14;98810.78;2144374;82;20221;-74
2021/05/03 06:09:38;;;;;;;;;;;;;;;4.04;82.45;98808.23;2173770;82;20229;-74
2021/05/03 06:12:40;;;;;;;;;;;;;;;3.92;82.30;98808.63;2173819;82;20237;-75
2021/05/03 06:15:42;;;;;;;;;;;;;;;3.86;83.17;98805.80;2173767;82;20133;-74
2021/05/03 06:18:44;;;;;;;;;;;;;;;3.86;83.03;98810.98;2173879;82;20252;-75
2021/05/03 06:21:46;;;;;;;;;;;;;;;3.99;83.74;98822.67;2173759;82;20229;-74
2021/05/03 06:24:48;;;;;;;;;;;;;;;3.96;83.36;98827.94;2173688;82;20642;-74
2021/05/03 06:27:50;;;;;;;;;;;;;;;3.96;83.31;98823.20;2144256;82;20158;-77
2021/05/03 06:30:55;;;;;;;;;;;;;;;3.95;82.28;98830.16;2173759;82;20225;-74
2021/05/03 06:33:57;;;;;;;;;;;;;;;4.03;84.05;98838.97;2174103;82;20166;-75
2021/05/03 06:36:59;;;;;;;;;;;;;;;3.98;83.25;98851.27;2173852;82;20241;-78
2021/05/03 06:40:01;;;;;;;;;;;;;;;3.93;83.03;98850.10;2174206;82;20142;-78
2021/05/03 06:43:03;;;;;;;;;;;;;;;3.84;82.74;98870.34;2173782;82;20528;-73
2021/05/03 06:46:05;;;;;;;;;;;;;;;3.74;83.07;98861.55;2173707;82;20257;-75
2021/05/03 06:49:07;;;;;;;;;;;;;;;3.73;84.09;98864.19;2173752;82;20229;-78
2021/05/03 06:52:10;;;;;;;;;;;;;;;3.71;84.41;98864.25;2173738;82;20245;-75
2021/05/03 06:55:12;;;;;;;;;;;;;;;3.76;83.81;98873.17;2173689;82;20245;-75
2021/05/03 06:58:15;;;;;;;;;;;;;;;3.83;83.84;98866.05;2144360;82;20556;-75
2021/05/03 07:01:17;;;;;;;;;;;;;;;4.05;83.72;98867.03;2173718;82;20166;-75
2021/05/03 07:04:19;;;;;;;;;;;;;;;4.24;83.09;98865.08;2166211;81;20150;-78
2021/05/03 07:07:21;;;;;;;;;;;;;;;4.45;83.97;98865.66;2163652;82;20273;-78
2021/05/03 07:10:23;;;;;;;;;;;;;;;4.46;83.08;98873.83;2163574;82;20144;-77
2021/05/03 07:13:25;;;;;;;;;;;;;;;4.37;82.75;98884.55;2163921;82;20237;-78
2021/05/03 07:16:28;;;;;;;;;;;;;;;4.25;82.52;98887.56;2163667;82;20418;-78
2021/05/03 07:19:30;;;;;;;;;;;;;;;4.06;82.21;98886.04;2163707;82;20234;-78
2021/05/03 07:22:32;;;;;;;;;;;;;;;3.99;83.15;98886.69;2163560;82;20138;-78
2021/05/03 07:25:34;;;;;;;;;;;;;;;4.06;83.53;98884.28;2163520;82;20445;-78
2021/05/03 07:28:36;;;;;;;;;;;;;;;4.13;83.10;98881.88;2163880;82;20225;-78
2021/05/03 07:31:38;;;;;;;;;;;;;;;4.28;83.35;98884.85;2163589;82;20222;-78
2021/05/03 07:34:40;;;;;;;;;;;;;;;4.39;82.09;98886.63;2163525;82;20138;-78
2021/05/03 07:37:42;;;;;;;;;;;;;;;4.55;82.76;98893.89;2163528;82;20178;-78
2021/05/03 07:40:44;;;;;;;;;;;;;;;4.90;81.28;98893.94;2163531;82;20171;-75
2021/05/03 07:43:46;;;;;;;;;;;;;;;5.12;80.69;98895.27;2163573;82;20182;-75
2021/05/03 07:46:48;;;;;;;;;;;;;;;5.21;80.42;98897.97;2163480;82;20433;-75
2021/05/03 07:49:50;;;;;;;;;;;;;;;5.35;79.91;98902.66;2163534;82;20158;-74
2021/05/03 07:52:54;;;;;;;;;;;;;;;5.67;80.89;98898.78;2142446;82;20245;-75
2021/05/03 07:55:56;;;;;;;;;;;;;;;5.76;80.22;98906.70;2163462;82;20241;-75
2021/05/03 07:58:58;;;;;;;;;;;;;;;5.94;78.88;98913.38;2163611;82;20421;-75
2021/05/03 08:02:00;;;;;;;;;;;;;;;6.11;79.98;98916.63;2163568;82;20123;-76
2021/05/03 08:05:02;;;;;;;;;;;;;;;6.05;76.12;98922.94;2178621;81;20225;-75
2021/05/03 08:08:04;;;;;;;;;;;;;;;5.89;78.49;98928.72;2180964;82;20233;-75
2021/05/03 08:11:06;;;;;;;;;;;;;;;5.74;78.09;98930.62;2180979;82;20280;-75
2021/05/03 08:14:08;;;;;;;;;;;;;;;5.75;78.32;98940.58;2180929;82;20257;-74
2021/05/03 08:17:13;;;;;;;;;;;;;;;5.73;78.37;98935.43;2181011;82;20229;-75
2021/05/03 08:20:14;;;;;;;;;;;;;;;5.92;77.90;98947.29;2181039;82;20489;-75
2021/05/03 08:23:19;;;;;;;;;;;;;;;5.94;77.47;98948.52;2180920;82;20240;-75
2021/05/03 08:26:21;;;;;;;;;;;;;;;5.95;77.66;98946.30;2181257;82;20142;-75
2021/05/03 08:29:23;;;;;;;;;;;;;;;6.09;79.39;98951.82;2181282;82;20122;-75
2021/05/03 08:32:25;;;;;;;;;;;;;;;6.06;78.85;98955.86;2180902;82;20233;-75
2021/05/03 08:35:27;;;;;;;;;;;;;;;5.95;77.19;98964.52;2180962;82;20508;-74
2021/05/03 08:38:29;;;;;;;;;;;;;;;5.71;77.65;98958.08;2180912;82;20126;-74
2021/05/03 08:41:31;;;;;;;;;;;;;;;5.63;78.96;98971.41;2180827;82;20229;-75
2021/05/03 08:44:33;;;;;;;;;;;;;;;5.78;78.61;98976.92;2180909;82;20134;-74
2021/05/03 08:47:37;;;;;;;;;;;;;;;5.80;77.60;98978.53;2180907;82;20165;-75
2021/05/03 08:50:56;;;;;;;;;;;;;;;5.71;78.21;98990.16;2180953;82;20233;-75
2021/05/03 08:54:01;;;;;;;;;;;;;;;5.78;77.64;98973.02;2180843;82;20236;-75
2021/05/03 08:57:01;;;;;;;;;;;;;;;5.83;79.21;98983.64;2180546;82;20229;-75
2021/05/03 09:00:03;;;;;;;;;;;;;;;5.71;77.97;98999.26;2180980;82;20229;-75
2021/05/03 09:03:05;;;;;;;;;;;;;;;5.75;78.48;98999.14;2178650;81;20489;-75
2021/05/03 09:06:07;;;;;;;;;;;;;;;5.77;78.82;98991.67;2163484;82;20123;-75
2021/05/03 09:09:10;;;;;;;;;;;;;;;5.87;79.64;98993.47;2163637;82;20550;-75
2021/05/03 09:12:12;;;;;;;;;;;;;;;5.86;75.85;99002.17;2163587;82;20178;-75
2021/05/03 09:15:14;;;;;;;;;;;;;;;5.77;76.78;99005.15;2163471;82;20614;-75
2021/05/03 09:18:16;;;;;;;;;;;;;;;5.84;78.33;99006.61;2163564;82;20417;-75
2021/05/03 09:21:18;;;;;;;;;;;;;;;5.79;77.94;99011.13;2163446;82;20142;-75
2021/05/03 09:24:23;;;;;;;;;;;;;;;5.65;78.52;98993.00;2163674;82;20421;-75
2021/05/03 09:27:24;;;;;;;;;;;;;;;5.50;78.55;99002.67;2163674;81;20257;-75
2021/05/03 09:30:27;;;;;;;;;;;;;;;5.41;79.72;99013.44;2163777;82;20500;-75
2021/05/03 09:33:29;;;;;;;;;;;;;;;5.45;79.28;99015.86;2163653;82;20234;-76
2021/05/03 09:36:31;;;;;;;;;;;;;;;5.66;80.35;99002.51;2163610;82;20229;-77
2021/05/03 09:39:33;;;;;;;;;;;;;;;5.89;78.89;99006.83;2163632;82;20233;-76
2021/05/03 09:42:35;;;;;;;;;;;;;;;6.07;77.63;99010.48;2163888;82;20274;-77
2021/05/03 09:45:38;;;;;;;;;;;;;;;6.21;77.24;99015.15;2163730;82;20505;-76
2021/05/03 09:48:40;;;;;;;;;;;;;;;6.33;76.20;99013.80;2163668;82;20135;-77
2021/05/03 09:51:42;;;;;;;;;;;;;;;6.37;76.66;99023.19;2163790;82;20497;-76
2021/05/03 09:54:44;;;;;;;;;;;;;;;6.30;76.66;99015.70;2163878;82;20150;-75
2021/05/03 09:57:46;;;;;;;;;;;;;;;6.21;75.25;99018.22;2163628;82;20230;-76
2021/05/03 10:00:48;;;;;;;;;;;;;;;6.00;76.09;99031.16;2142686;82;20441;-77
2021/05/03 10:03:50;;;;;;;;;;;;;;;5.82;77.50;99028.80;2163526;81;20225;-77
2021/05/03 10:06:52;;;;;;;;;;;;;;;5.81;78.99;99037.50;2163613;82;20233;-78
2021/05/03 10:09:58;;;;;;;;;;;;;;;5.74;78.72;99030.84;2163621;82;20233;-77
2021/05/03 10:13:00;;;;;;;;;;;;;;;5.65;78.98;99043.75;2163652;82;20245;-78
2021/05/03 10:16:02;;;;;;;;;;;;;;;5.57;78.55;99057.48;2163607;82;20226;-77
2021/05/03 10:19:04;;;;;;;;;;;;;;;5.67;79.40;99046.29;2163566;82;20229;-76
2021/05/03 10:22:06;;;;;;;;;;;;;;;5.61;77.36;99056.94;2163702;82;20492;-77
2021/05/03 10:25:08;;;;;;;;;;;;;;;5.61;79.19;99059.08;2163904;82;20158;-77
2021/05/03 10:28:10;;;;;;;;;;;;;;;5.60;78.45;99057.37;2163956;82;20229;-77
2021/05/03 10:31:12;;;;;;;;;;;;;;;5.50;79.35;99063.39;2163591;82;20134;-78
2021/05/03 10:34:14;;;;;;;;;;;;;;;5.47;80.19;99054.83;2163910;82;20261;-77
2021/05/03 10:37:16;;;;;;;;;;;;;;;5.65;80.97;99061.13;2163571;82;20138;-77
2021/05/03 10:40:18;;;;;;;;;;;;;;;5.82;81.23;99057.44;2163589;82;20143;-78
2021/05/03 10:43:21;;;;;;;;;;;;;;;5.80;79.12;99063.13;2163666;82;20548;-78
2021/05/03 10:49:46;;;;;;;;;;;;;;;6.22;81.76;99062.44;2164075;82;20127;-77
2021/05/03 10:52:47;;;;;;;;;;;;;;;6.52;79.31;99061.27;2163782;82;20147;-76
2021/05/03 10:55:49;;;;;;;;;;;;;;;6.71;79.91;99057.44;2164018;82;20127;-77
2021/05/03 10:58:51;;;;;;;;;;;;;;;6.82;77.38;99063.05;2163813;82;20127;-76
2021/05/03 11:01:53;;;;;;;;;;;;;;;6.63;76.16;99067.35;2163628;82;20150;-77
2021/05/03 11:04:55;;;;;;;;;;;;;;;6.51;78.37;99072.15;2163499;81;20241;-77
2021/05/03 11:07:57;;;;;;;;;;;;;;;6.33;78.81;99083.30;2142673;82;20222;-78
2021/05/03 11:11:00;;;;;;;;;;;;;;;5.99;77.71;99078.96;2163617;82;20441;-78
2021/05/03 11:14:02;;;;;;;;;;;;;;;5.77;78.75;99085.38;2163546;82;20441;-77
2021/05/03 11:17:04;;;;;;;;;;;;;;;5.75;80.03;99091.11;2142543;82;20229;-77
2021/05/03 11:20:09;;;;;;;;;;;;;;;6.04;79.71;99080.91;2163502;82;20131;-77
2021/05/03 11:23:11;;;;;;;;;;;;;;;6.55;81.23;99078.07;2163588;82;20162;-77
2021/05/03 11:26:14;;;;;;;;;;;;;;;7.00;77.16;99079.70;2163574;82;20233;-76
2021/05/03 11:29:20;;;;;;;;;;;;;;;7.13;75.28;99064.37;2163930;82;20218;-77
2021/05/03 11:32:20;;;;;;;;;;;;;;;7.15;76.04;99077.35;2163367;82;20226;-77
2021/05/03 11:35:27;;;;;;;;;;;;;;;7.20;77.12;99072.80;2163541;82;20158;-77
2021/05/03 11:38:31;;;;;;;;;;;;;;;7.24;74.70;99080.86;2163431;81;20147;-77
2021/05/03 11:41:46;;;;;;;;;;;;;;;7.30;74.49;99076.70;2163877;81;20465;-77
2021/05/03 11:44:46;;;;;;;;;;;;;;;7.33;74.71;99077.86;2162208;82;20455;-76
2021/05/03 11:47:48;;;;;;;;;;;;;;;7.45;72.58;99083.83;2163535;82;20134;-76
2021/05/03 11:50:50;;;;;;;;;;;;;;;7.36;72.76;99091.24;2163770;82;20225;-76
2021/05/03 11:53:52;;;;;;;;;;;;;;;7.38;71.97;99069.83;2163484;82;20139;-76
2021/05/03 11:56:54;;;;;;;;;;;;;;;7.47;72.17;99087.70;2163542;82;20150;-76
2021/05/03 11:59:56;;;;;;;;;;;;;;;7.37;71.34;99075.95;2163478;82;20154;-76
2021/05/03 12:02:58;;;;;;;;;;;;;;;7.40;69.68;99077.15;2163769;82;20416;-76
2021/05/03 12:06:00;;;;;;;;;;;;;;;7.36;70.86;99078.19;2163490;82;20413;-77
2021/05/03 12:09:02;;;;;;;;;;;;;;;7.55;68.96;99069.09;2142531;82;20410;-77
2021/05/03 12:12:04;;;;;;;;;;;;;;;7.76;70.28;99081.17;2163508;82;20150;-76
2021/05/03 12:15:06;;;;;;;;;;;;;;;7.95;67.66;99082.48;2163470;82;20445;-76
2021/05/03 12:18:08;;;;;;;;;;;;;;;7.88;69.87;99077.14;2163736;82;20265;-76
2021/05/03 12:21:10;;;;;;;;;;;;;;;7.86;66.49;99078.13;2163570;82;20413;-76
2021/05/03 12:24:12;;;;;;;;;;;;;;;7.85;68.25;99062.92;2163601;82;20210;-76
2021/05/03 12:27:14;;;;;;;;;;;;;;;8.07;69.82;99075.83;2163507;82;20489;-76
2021/05/03 12:30:17;;;;;;;;;;;;;;;8.26;67.43;99079.75;2163856;82;20233;-76
2021/05/03 12:33:19;;;;;;;;;;;;;;;8.33;65.95;99074.62;2163857;82;20230;-76
2021/05/03 12:36:21;;;;;;;;;;;;;;;8.14;64.78;99091.60;2163474;82;20149;-76
2021/05/03 12:39:23;;;;;;;;;;;;;;;7.95;65.80;99093.39;2163942;82;20138;-77
2021/05/03 12:42:25;;;;;;;;;;;;;;;7.96;68.19;99074.20;2163570;82;20552;-76
2021/05/03 12:45:32;;;;;;;;;;;;;;;8.46;68.67;99085.37;2163554;82;20441;-76
2021/05/03 12:48:41;;;;;;;;;;;;;;;8.24;65.99;99071.59;2163505;82;20253;-76
2021/05/03 12:51:47;;;;;;;;;;;;;;;8.10;68.44;99083.55;2163350;82;20237;-76
2021/05/03 12:54:54;;;;;;;;;;;;;;;8.01;66.43;99062.22;2163434;82;20146;-76
2021/05/03 12:57:57;;;;;;;;;;;;;;;7.98;68.28;99061.91;2162681;82;20126;-76
2021/05/03 13:01:07;;;;;;;;;;;;;;;8.06;68.17;99057.17;2163372;82;20226;-77
2021/05/03 13:04:17;;;;;;;;;;;;;;;8.07;65.85;99076.30;2163373;81;20142;-76
2021/05/03 13:07:40;;;;;;;;;;;;;;;8.20;67.41;99072.65;2163050;82;20269;-76
2021/05/03 13:31:09;;;;;;;;;;;;;;;8.31;66.68;99045.08;2100918;85;20277;-76
2021/05/03 13:34:11;;;;;;;;;;;;;;;8.41;66.91;99046.80;2101099;85;20134;-76
2021/05/03 13:37:13;;;;;;;;;;;;;;;8.28;65.71;99068.75;2161992;82;20277;-76
2021/05/03 13:40:15;;;;;;;;;;;;;;;8.20;64.03;99043.44;2164057;82;20178;-76
2021/05/03 13:43:18;;;;;;;;;;;;;;;8.24;66.35;99042.38;2163801;82;20434;-76
2021/05/03 13:46:20;;;;;;;;;;;;;;;8.25;63.62;99047.16;2163779;82;20227;-77
2021/05/03 13:49:22;;;;;;;;;;;;;;;8.36;63.26;99034.87;2163902;82;20409;-76
2021/05/03 13:52:24;;;;;;;;;;;;;;;8.46;64.56;99042.67;2143001;82;20135;-76
2021/05/03 13:55:26;;;;;;;;;;;;;;;8.50;62.51;99040.30;2163824;82;20508;-76
2021/05/03 13:58:28;;;;;;;;;;;;;;;8.67;63.46;99052.55;2164182;81;20234;-76
2021/05/03 14:01:31;;;;;;;;;;;;;;;8.77;64.17;99044.62;2164000;82;20230;-77
2021/05/03 14:04:33;;;;;;;;;;;;;;;9.04;60.83;99048.08;2166163;81;20216;-76
2021/05/03 14:07:35;;;;;;;;;;;;;;;9.04;62.25;99065.09;2153639;82;20256;-76
2021/05/03 14:10:37;;;;;;;;;;;;;;;9.09;62.67;99053.08;2153243;82;20185;-76
2021/05/03 14:13:39;;;;;;;;;;;;;;;9.17;59.34;99059.61;2181047;82;20237;-76
2021/05/03 14:16:42;;;;;;;;;;;;;;;9.10;60.05;99049.07;2181155;82;20484;-76
2021/05/03 14:19:44;;;;;;;;;;;;;;;9.15;61.61;99073.24;2153302;82;20229;-76
2021/05/03 14:22:46;;;;;;;;;;;;;;;9.08;62.15;99061.40;2181149;82;20225;-76
2021/05/03 14:25:51;;;;;;;;;;;;;;;9.56;61.10;99071.17;2181030;82;20229;-76
2021/05/03 14:28:57;;;;;;;;;;;;;;;10.00;60.38;99060.91;2181170;82;20225;-76
2021/05/03 14:31:59;;;;;;;;;;;;;;;10.01;59.50;99059.99;2180759;82;20233;-76
2021/05/03 14:35:03;;;;;;;;;;;;;;;10.11;60.53;99060.30;2181102;81;20257;-76
2021/05/03 14:38:04;;;;;;;;;;;;;;;10.20;59.86;99053.70;2180863;81;20185;-77
2021/05/03 14:41:07;;;;;;;;;;;;;;;10.14;59.50;99047.05;2181372;82;20584;-76
2021/05/03 14:44:12;;;;;;;;;;;;;;;10.17;59.53;99042.08;2181077;82;20583;-76
2021/05/03 14:47:18;;;;;;;;;;;;;;;10.19;60.09;99038.45;2180932;82;20272;-76
2021/05/03 14:50:23;;;;;;;;;;;;;;;10.35;60.83;99030.59;2180528;82;20261;-76
2021/05/03 14:53:32;;;;;;;;;;;;;;;10.25;60.79;99029.40;2180634;82;20248;-76
2021/05/03 14:56:31;;;;;;;;;;;;;;;10.00;60.32;99037.33;2180413;82;20233;-76
2021/05/03 14:59:33;;;;;;;;;;;;;;;9.59;61.40;99030.41;2180975;82;20241;-76
2021/05/03 15:02:35;;;;;;;;;;;;;;;9.25;60.34;99038.73;2181014;82;20524;-76
2021/05/03 15:05:39;;;;;;;;;;;;;;;8.89;61.50;99038.39;2173520;82;20225;-76
2021/05/03 15:08:41;;;;;;;;;;;;;;;8.52;62.57;99046.75;2163584;82;20417;-77
2021/05/03 15:11:45;;;;;;;;;;;;;;;8.17;62.24;99046.20;2163927;82;20237;-76
2021/05/03 15:14:59;;;;;;;;;;;;;;;7.79;63.08;99057.52;2163660;82;20234;-76
2021/05/03 15:18:15;;;;;;;;;;;;;;;7.64;62.65;99058.22;2163464;82;20409;-77
2021/05/03 15:21:22;;;;;;;;;;;;;;;7.36;59.86;99060.77;2163121;82;20143;-77
2021/05/03 15:24:24;;;;;;;;;;;;;;;7.23;61.47;99038.75;2163635;82;20173;-76
2021/05/03 15:27:36;;;;;;;;;;;;;;;7.42;62.75;99034.86;2142538;82;20222;-77
2021/05/03 15:30:55;;;;;;;;;;;;;;;7.69;63.14;99035.38;2163523;82;20421;-76
2021/05/03 15:33:48;;;;;;;;;;;;;;;7.90;61.94;99032.67;2161244;82;20127;-76
2021/05/03 15:36:52;;;;;;;;;;;;;;;8.13;62.05;99031.59;2162949;82;20130;-76
2021/05/03 15:39:55;;;;;;;;;;;;;;;9.13;58.75;99023.21;2163531;82;20159;-75
2021/05/03 15:42:59;;;;;;;;;;;;;;;12.03;52.63;99011.81;2163650;82;20241;-76
2021/05/03 15:46:03;;;;;;;;;;;;;;;11.64;52.25;99016.45;2163517;82;20147;-76
2021/05/03 15:49:15;;;;;;;;;;;;;;;10.67;54.84;99013.94;2163656;82;20548;-76
2021/05/03 15:52:18;;;;;;;;;;;;;;;9.85;56.85;99008.87;2163533;82;20409;-76
2021/05/03 15:55:25;;;;;;;;;;;;;;;9.29;58.48;99007.07;2163764;82;20135;-76
2021/05/03 15:58:28;;;;;;;;;;;;;;;8.90;59.55;99018.69;2163586;82;20279;-76
2021/05/03 16:01:31;;;;;;;;;;;;;;;8.58;61.00;99025.56;2163536;82;20200;-76
2021/05/03 16:04:37;;;;;;;;;;;;;;;8.40;62.04;99028.58;2163503;82;20178;-77
2021/05/03 16:07:44;;;;;;;;;;;;;;;8.24;62.35;99042.38;2133798;84;20271;-75
2021/05/03 16:10:52;;;;;;;;;;;;;;;8.13;63.86;99035.50;2133410;83;20416;-76
2021/05/03 16:13:57;;;;;;;;;;;;;;;8.24;64.25;99028.47;2133676;84;20202;-75
2021/05/03 16:17:09;;;;;;;;;;;;;;;8.60;64.82;99028.93;2133602;84;20287;-76
2021/05/03 16:20:18;;;;;;;;;;;;;;;10.34;59.45;99024.99;2133785;84;20148;-77
2021/05/03 16:23:20;;;;;;;;;;;;;;;11.74;56.17;99012.33;2128866;83;20240;-77
2021/05/03 16:26:23;;;;;;;;;;;;;;;10.85;56.76;99017.28;2133701;84;20425;-76
2021/05/03 16:29:25;;;;;;;;;;;;;;;11.33;51.01;99023.13;2133548;84;20471;-76
2021/05/03 16:32:29;;;;;;;;;;;;;;;11.74;47.40;99029.41;2133450;84;20448;-77